Time;durP1;ratioP1;P1;durP2;ratioP2;P2;SDS_P1;SDS_P2;PMS_P1;PMS_P2;Temp;Humidity;BMP_temperature;BMP_pressure;BME280_temperature;BME280_humidity;BME280_pressure;Samples;Min_cycle;Max_cycle;Signal;HPM_P1;HPM_P2
2022/08/30 00:02:26;;;;;;;;;4.00;3.20;;;;;17.62;50.71;100292.47;5016060;28;8854;-83
2022/08/30 00:04:54;;;;;;;;;1.00;1.00;;;;;17.65;50.30;100302.94;5015646;28;8856;-83
2022/08/30 00:07:21;;;;;;;;;3.00;3.00;;;;;17.69;50.10;100298.91;5015862;28;8842;-83
2022/08/30 00:09:49;;;;;;;;;3.60;3.60;;;;;17.75;50.40;100300.97;5016152;28;8842;-83
2022/08/30 00:12:19;;;;;;;;;6.00;4.00;;;;;17.79;50.08;100294.28;5016642;28;8860;-83
2022/08/30 00:14:47;;;;;;;;;3.80;3.80;;;;;17.83;50.23;100297.50;5015476;28;8846;-83
2022/08/30 00:17:15;;;;;;;;;4.40;4.40;;;;;17.88;50.40;100279.84;5016073;28;8884;-83
2022/08/30 00:19:42;;;;;;;;;3.50;3.50;;;;;17.93;50.49;100287.44;5016517;28;8904;-83
2022/08/30 00:22:11;;;;;;;;;6.00;5.20;;;;;17.94;50.02;100287.28;5015622;28;9009;-83
2022/08/30 00:24:40;;;;;;;;;7.00;6.60;;;;;17.96;50.48;100287.97;5015330;28;8997;-83
2022/08/30 00:27:07;;;;;;;;;3.40;3.40;;;;;17.96;50.11;100285.28;5015523;28;8849;-83
2022/08/30 00:29:35;;;;;;;;;6.00;5.60;;;;;17.97;50.90;100283.41;5015286;28;8927;-83
2022/08/30 00:32:03;;;;;;;;;4.00;4.00;;;;;17.96;50.18;100285.28;5015692;28;8892;-83
2022/08/30 00:34:31;;;;;;;;;4.00;3.60;;;;;17.97;50.90;100280.72;5014785;28;8964;-83
2022/08/30 00:36:59;;;;;;;;;6.00;3.80;;;;;17.94;50.24;100281.91;5015522;28;8878;-83
2022/08/30 00:39:27;;;;;;;;;4.00;4.00;;;;;17.96;50.43;100282.56;5015717;28;8822;-83
2022/08/30 00:41:55;;;;;;;;;5.20;3.80;;;;;17.98;50.19;100277.88;5015329;28;8925;-83
2022/08/30 00:44:23;;;;;;;;;3.00;3.00;;;;;18.01;50.49;100279.41;5015275;28;8964;-83
2022/08/30 00:46:50;;;;;;;;;4.00;4.00;;;;;18.06;50.62;100283.28;5015368;28;9008;-83
2022/08/30 00:49:18;;;;;;;;;4.40;4.40;;;;;18.09;50.67;100282.13;5015199;28;8978;-83
2022/08/30 00:51:46;;;;;;;;;4.40;4.00;;;;;18.12;50.74;100279.09;5014484;28;8965;-83
2022/08/30 00:54:15;;;;;;;;;4.80;4.80;;;;;18.10;51.00;100281.97;5015068;28;8891;-83
2022/08/30 00:56:42;;;;;;;;;5.20;5.20;;;;;18.02;51.12;100281.94;5014038;28;8993;-83
2022/08/30 00:59:10;;;;;;;;;5.20;3.80;;;;;17.93;51.12;100285.56;5014265;28;8862;-83
2022/08/30 01:01:38;;;;;;;;;4.00;4.00;;;;;17.84;51.58;100281.16;5015020;28;8849;-83
2022/08/30 01:04:07;;;;;;;;;1.80;1.80;;;;;17.77;51.38;100290.03;5014353;28;9594;-83
2022/08/30 01:06:35;;;;;;;;;5.20;5.20;;;;;17.72;51.90;100287.84;5015125;28;8973;-83
2022/08/30 01:09:03;;;;;;;;;3.00;3.00;;;;;17.67;51.83;100287.44;5015466;28;8857;-83
2022/08/30 01:11:31;;;;;;;;;6.00;6.00;;;;;17.62;51.61;100288.94;5015383;28;8866;-83
2022/08/30 01:13:58;;;;;;;;;3.80;3.80;;;;;17.58;51.70;100291.09;5014816;28;8845;-83
2022/08/30 01:16:26;;;;;;;;;6.00;5.20;;;;;17.55;52.05;100290.56;5014062;28;8961;-83
2022/08/30 01:18:54;;;;;;;;;5.20;3.80;;;;;17.54;51.99;100294.28;5014277;28;8930;-83
2022/08/30 01:21:22;;;;;;;;;7.20;6.20;;;;;17.52;51.93;100291.72;5014163;28;9549;-83
2022/08/30 01:23:52;;;;;;;;;6.00;5.20;;;;;17.49;51.97;100291.19;5013483;28;8838;-83
2022/08/30 01:26:20;;;;;;;;;4.00;4.00;;;;;17.48;52.21;100287.63;5013352;28;8862;-83
2022/08/30 01:28:48;;;;;;;;;5.20;5.20;;;;;17.47;52.26;100295.91;5014155;28;8840;-83
2022/08/30 01:31:16;;;;;;;;;5.50;5.50;;;;;17.44;52.48;100286.28;5014074;28;9598;-83
2022/08/30 01:33:45;;;;;;;;;6.00;5.60;;;;;17.44;52.15;100286.28;5014619;28;8834;-83
2022/08/30 01:36:13;;;;;;;;;7.40;5.60;;;;;17.41;52.51;100283.91;5016937;28;8965;-83
2022/08/30 01:38:40;;;;;;;;;6.00;6.00;;;;;17.36;52.47;100288.91;5017300;28;8846;-83
2022/08/30 01:41:08;;;;;;;;;4.00;4.00;;;;;17.31;52.91;100285.81;5017144;28;8866;-83
2022/08/30 01:43:36;;;;;;;;;9.50;6.75;;;;;17.25;52.57;100289.09;5016179;28;8822;-83
2022/08/30 01:46:04;;;;;;;;;6.00;5.50;;;;;17.19;52.93;100289.75;5016827;28;8984;-83
2022/08/30 01:48:33;;;;;;;;;5.60;4.00;;;;;17.14;52.66;100297.44;5015919;28;8839;-83
2022/08/30 01:51:01;;;;;;;;;4.00;4.00;;;;;17.10;52.98;100296.03;5016178;28;8969;-83
2022/08/30 01:53:29;;;;;;;;;5.00;4.00;;;;;17.12;53.03;100296.75;5016129;28;8854;-83
2022/08/30 01:55:57;;;;;;;;;6.50;5.00;;;;;17.21;53.08;100301.22;5015573;28;9273;-83
2022/08/30 01:58:25;;;;;;;;;7.00;6.75;;;;;17.32;53.29;100292.03;5015787;28;8841;-83
2022/08/30 02:00:52;;;;;;;;;7.25;6.25;;;;;17.40;52.95;100290.28;5015469;28;8976;-83
2022/08/30 02:03:20;;;;;;;;;4.00;4.00;;;;;17.46;52.84;100284.28;5015727;28;8877;-83
2022/08/30 02:05:49;;;;;;;;;6.50;6.50;;;;;17.50;52.63;100291.03;5015708;28;8846;-83
2022/08/30 02:08:17;;;;;;;;;6.75;6.75;;;;;17.52;52.68;100294.41;5015397;28;8996;-83
2022/08/30 02:10:44;;;;;;;;;7.00;6.00;;;;;17.52;52.58;100299.81;5015434;28;8822;-83
2022/08/30 02:13:12;;;;;;;;;4.00;4.00;;;;;17.53;53.02;100304.19;5015348;28;8937;-83
2022/08/30 02:15:41;;;;;;;;;7.00;6.50;;;;;17.54;53.16;100303.19;5015367;28;8873;-83
2022/08/30 02:18:10;;;;;;;;;7.25;6.25;;;;;17.54;52.59;100308.56;5015209;28;8983;-83
2022/08/30 02:20:37;;;;;;;;;8.00;6.00;;;;;17.55;52.63;100302.16;5015505;28;8838;-83
2022/08/30 02:23:05;;;;;;;;;6.75;6.50;;;;;17.56;52.52;100309.28;5014988;28;9527;-83
2022/08/30 02:25:33;;;;;;;;;5.50;5.00;;;;;17.57;52.61;100308.28;5015131;28;8850;-83
2022/08/30 02:28:01;;;;;;;;;7.50;7.50;;;;;17.60;52.67;100297.16;5015049;28;8956;-83
2022/08/30 02:30:28;;;;;;;;;6.40;4.80;;;;;17.60;52.96;100297.16;5015456;28;9510;-83
2022/08/30 02:32:56;;;;;;;;;9.00;7.00;;;;;17.59;53.04;100298.16;5016713;28;8835;-83
2022/08/30 02:35:25;;;;;;;;;9.00;8.20;;;;;17.56;53.16;100295.81;5017073;28;8853;-83
2022/08/30 02:37:53;;;;;;;;;8.20;6.80;;;;;17.52;53.20;100291.72;5016386;28;8826;-83
2022/08/30 02:40:21;;;;;;;;;8.20;6.60;;;;;17.49;53.09;100285.81;5017111;28;8850;-83
2022/08/30 02:42:52;;;;;;;;;8.00;8.00;;;;;17.44;53.69;100286.28;5016265;28;8834;-83
2022/08/30 02:45:20;;;;;;;;;4.20;3.00;;;;;17.39;53.37;100287.75;5016507;28;8941;-83
2022/08/30 02:47:48;;;;;;;;;7.40;6.00;;;;;17.33;54.08;100291.03;5016350;28;8834;-83
2022/08/30 02:50:16;;;;;;;;;8.40;6.00;;;;;17.28;54.26;100283.44;5016803;28;9618;-83
2022/08/30 02:52:43;;;;;;;;;7.00;6.60;;;;;17.26;53.99;100277.38;5016278;28;8823;-83
2022/08/30 02:55:16;;;;;;;;;5.60;4.00;;;;;17.25;54.42;100277.50;5016095;28;8854;-83
2022/08/30 02:57:43;;;;;;;;;4.80;4.80;;;;;17.19;54.54;100288.91;5016360;28;8842;-83
2022/08/30 03:00:12;;;;;;;;;9.75;9.50;;;;;17.12;54.55;100287.81;5015451;28;8830;-83
2022/08/30 03:02:40;;;;;;;;;7.40;6.80;;;;;17.07;54.71;100287.44;5016308;28;8873;-83
2022/08/30 03:05:08;;;;;;;;;10.00;9.00;;;;;17.02;54.33;100279.81;5015979;28;8963;-83
2022/08/30 03:07:36;;;;;;;;;4.40;4.00;;;;;17.01;54.35;100275.44;5015502;28;8938;-83
2022/08/30 03:10:03;;;;;;;;;6.50;6.50;;;;;17.05;54.86;100281.38;5015707;28;8960;-83
2022/08/30 03:12:32;;;;;;;;;7.50;7.50;;;;;17.07;54.51;100280.22;5015439;28;8977;-83
2022/08/30 03:15:01;;;;;;;;;3.80;3.80;;;;;17.05;55.06;100286.75;5015965;28;8866;-83
2022/08/30 03:17:29;;;;;;;;;3.80;3.80;;;;;17.01;54.95;100290.78;5015844;28;8870;-83
2022/08/30 03:19:59;;;;;;;;;5.25;4.50;;;;;16.97;54.74;100287.53;5015168;28;8849;-83
2022/08/30 03:22:26;;;;;;;;;9.50;8.00;;;;;16.96;54.81;100283.16;5015520;28;8968;-83
2022/08/30 03:24:58;;;;;;;;;8.00;7.00;;;;;16.97;54.78;100287.53;5015738;28;8857;-83
2022/08/30 03:27:26;;;;;;;;;9.25;8.00;;;;;16.98;55.36;100274.91;5015745;28;8972;-83
2022/08/30 03:29:53;;;;;;;;;3.50;1.50;;;;;16.99;54.87;100277.47;5015393;28;8850;-83
2022/08/30 03:32:21;;;;;;;;;7.00;7.00;;;;;16.95;55.09;100275.22;5015321;28;8846;-83
2022/08/30 03:34:49;;;;;;;;;7.00;7.00;;;;;16.92;54.90;100289.84;5015849;28;8860;-83
2022/08/30 03:37:16;;;;;;;;;8.75;7.50;;;;;16.88;55.22;100283.09;5015167;28;8957;-83
2022/08/30 03:39:45;;;;;;;;;9.50;6.25;;;;;16.82;55.86;100282.84;5015449;28;8857;-83
2022/08/30 03:42:14;;;;;;;;;7.00;6.25;;;;;16.77;55.93;100274.38;5015924;28;9562;-83
2022/08/30 03:44:43;;;;;;;;;9.00;9.00;;;;;16.73;56.27;100281.94;5015007;28;8862;-83
2022/08/30 03:47:10;;;;;;;;;6.50;6.00;;;;;16.69;56.39;100277.84;5015059;28;8842;-83
2022/08/30 03:49:38;;;;;;;;;6.75;6.00;;;;;16.66;56.49;100280.84;5015332;28;8952;-83
2022/08/30 03:52:06;;;;;;;;;7.75;6.75;;;;;16.64;56.00;100280.13;5014312;28;8848;-83
2022/08/30 03:54:34;;;;;;;;;9.00;7.50;;;;;16.61;56.76;100274.22;5014722;28;8911;-83
2022/08/30 03:57:04;;;;;;;;;9.50;8.00;;;;;16.59;56.29;100276.22;5014030;28;9503;-83
2022/08/30 03:59:31;;;;;;;;;9.00;8.00;;;;;16.54;56.89;100284.72;5013772;28;8972;-83
2022/08/30 04:01:59;;;;;;;;;10.75;9.00;;;;;16.49;57.17;100283.50;5014475;28;8854;-83
2022/08/30 04:04:27;;;;;;;;;4.00;4.00;;;;;16.41;57.00;100286.94;5014488;28;8838;-83
2022/08/30 04:06:55;;;;;;;;;6.50;6.00;;;;;16.33;56.75;100286.81;5014020;28;8838;-83
2022/08/30 04:09:23;;;;;;;;;5.00;5.00;;;;;16.23;57.38;100287.84;5013980;28;8865;-83
2022/08/30 04:11:51;;;;;;;;;6.00;5.50;;;;;16.14;56.96;100287.91;5014514;28;8858;-83
2022/08/30 04:14:19;;;;;;;;;8.00;8.00;;;;;16.06;57.67;100295.84;5013368;28;9492;-84
2022/08/30 04:16:46;;;;;;;;;6.00;6.00;;;;;15.99;57.89;100295.59;5012836;28;8968;-83
2022/08/30 04:19:14;;;;;;;;;7.50;7.00;;;;;15.97;57.87;100291.38;5013102;28;8980;-83
2022/08/30 04:21:43;;;;;;;;;10.00;9.00;;;;;15.95;57.55;100291.53;5011633;28;8895;-83
2022/08/30 04:24:11;;;;;;;;;6.75;6.00;;;;;15.90;58.00;100284.88;5012467;28;8856;-83
2022/08/30 04:26:39;;;;;;;;;7.00;7.00;;;;;15.85;57.81;100293.38;5011959;28;8976;-83
2022/08/30 04:29:07;;;;;;;;;5.50;5.50;;;;;15.80;57.92;100294.81;5012899;28;8839;-83
2022/08/30 04:31:34;;;;;;;;;7.50;6.25;;;;;15.74;58.01;100295.41;5012794;28;8846;-83
2022/08/30 04:34:02;;;;;;;;;7.75;6.50;;;;;15.69;58.20;100300.38;5013997;28;8834;-83
2022/08/30 04:36:30;;;;;;;;;6.00;4.50;;;;;15.65;58.13;100296.28;5013761;28;8826;-83
2022/08/30 04:38:58;;;;;;;;;6.00;5.50;;;;;15.60;58.67;100295.88;5013567;28;8964;-83
2022/08/30 04:41:26;;;;;;;;;9.75;7.00;;;;;15.56;58.71;100305.22;5013508;28;8850;-83
2022/08/30 04:43:54;;;;;;;;;7.50;6.50;;;;;15.51;58.18;100302.97;5013346;28;8834;-83
2022/08/30 04:46:22;;;;;;;;;7.00;7.00;;;;;15.47;58.54;100298.88;5011519;28;8847;-83
2022/08/30 04:48:50;;;;;;;;;5.50;5.00;;;;;15.45;58.60;100302.69;5010606;28;8830;-83
2022/08/30 04:51:18;;;;;;;;;6.00;5.50;;;;;15.44;58.84;100301.84;5011354;28;8858;-85
2022/08/30 04:53:46;;;;;;;;;9.00;7.00;;;;;15.44;58.48;100307.22;5011737;28;8835;-83
2022/08/30 04:56:15;;;;;;;;;6.33;6.33;;;;;15.43;58.47;100304.66;5012347;28;8961;-83
2022/08/30 04:58:43;;;;;;;;;10.00;8.00;;;;;15.43;58.45;100307.34;5012219;28;8960;-83
2022/08/30 05:01:10;;;;;;;;;7.75;7.50;;;;;15.43;58.33;100310.91;5012931;28;8849;-83
2022/08/30 05:03:38;;;;;;;;;6.00;6.00;;;;;15.46;58.44;100315.97;5012255;28;8857;-83
2022/08/30 05:06:06;;;;;;;;;7.50;7.50;;;;;15.54;57.70;100312.56;5011506;28;8838;-83
2022/08/30 05:08:34;;;;;;;;;7.50;6.50;;;;;15.62;58.07;100321.56;5010967;28;8846;-83
2022/08/30 05:11:01;;;;;;;;;5.00;4.25;;;;;15.70;58.01;100326.25;5011470;28;8849;-83
2022/08/30 05:13:29;;;;;;;;;9.25;8.00;;;;;15.77;58.10;100325.50;5010249;28;8842;-83
2022/08/30 05:16:02;;;;;;;;;10.75;8.50;;;;;15.87;57.67;100317.41;5009755;28;8858;-83
2022/08/30 05:18:29;;;;;;;;;8.50;7.00;;;;;15.96;57.75;100322.78;5010538;28;8984;-83
2022/08/30 05:20:57;;;;;;;;;6.00;6.00;;;;;16.02;57.58;100324.03;5009574;28;8966;-83
2022/08/30 05:23:25;;;;;;;;;6.75;6.50;;;;;16.05;58.29;100312.97;5010678;28;8850;-83
2022/08/30 05:25:53;;;;;;;;;9.00;9.00;;;;;16.08;58.04;100323.44;5010659;28;8952;-83
2022/08/30 05:28:21;;;;;;;;;7.00;7.00;;;;;16.12;57.85;100320.31;5012229;28;8864;-83
2022/08/30 05:30:52;;;;;;;;;4.50;3.75;;;;;16.16;57.90;100320.84;5011318;28;8840;-83
2022/08/30 05:33:20;;;;;;;;;9.00;8.00;;;;;16.22;58.11;100322.94;5010826;28;8845;-83
2022/08/30 05:35:48;;;;;;;;;7.50;6.50;;;;;16.26;57.71;100322.50;5011326;28;8857;-83
2022/08/30 05:38:15;;;;;;;;;6.00;6.00;;;;;16.32;57.63;100322.75;5011229;28;8814;-83
2022/08/30 05:40:44;;;;;;;;;6.50;6.25;;;;;16.40;57.79;100336.31;5011819;28;8884;-83
2022/08/30 05:43:13;;;;;;;;;9.75;9.00;;;;;16.46;56.96;100332.19;5011123;28;8833;-83
2022/08/30 05:45:40;;;;;;;;;8.00;7.00;;;;;16.52;57.28;100332.44;5010053;28;8881;-83
2022/08/30 05:48:08;;;;;;;;;3.25;3.25;;;;;16.61;57.06;100331.53;5009140;28;8856;-83
2022/08/30 05:50:39;;;;;;;;;9.50;9.00;;;;;16.71;57.29;100328.78;5008328;28;8854;-83
2022/08/30 05:53:07;;;;;;;;;9.00;7.00;;;;;16.79;56.55;100321.63;5009065;28;8954;-83
2022/08/30 05:55:35;;;;;;;;;6.75;6.00;;;;;16.88;56.77;100330.66;5007215;28;8850;-83
2022/08/30 05:58:02;;;;;;;;;6.75;6.00;;;;;16.97;56.39;100330.59;5005500;28;8846;-83
2022/08/30 06:00:30;;;;;;;;;9.00;7.50;;;;;17.04;56.47;100331.69;5005182;28;9094;-83
2022/08/30 06:02:58;;;;;;;;;9.25;6.00;;;;;17.12;56.46;100337.13;5005303;28;8846;-83
2022/08/30 06:05:26;;;;;;;;;10.00;7.00;;;;;17.25;56.59;100336.75;5005681;28;8846;-83
2022/08/30 06:07:54;;;;;;;;;6.50;6.00;;;;;17.41;55.92;100335.06;5005337;28;8850;-83
2022/08/30 06:10:22;;;;;;;;;9.25;9.25;;;;;17.62;55.47;100327.47;5004065;28;8914;-83
2022/08/30 06:12:49;;;;;;;;;12.00;10.25;;;;;17.82;55.39;100322.72;5006483;28;8839;-83
2022/08/30 06:15:17;;;;;;;;;10.00;9.00;;;;;17.97;55.29;100321.13;5007631;28;8842;-83
2022/08/30 06:17:45;;;;;;;;;9.60;9.60;;;;;18.04;55.37;100322.19;5008550;28;8964;-83
2022/08/30 06:20:12;;;;;;;;;9.40;9.20;;;;;18.05;55.54;100335.50;5007395;28;9009;-83
2022/08/30 06:22:40;;;;;;;;;12.20;9.40;;;;;17.99;55.44;100330.75;5011722;28;9508;-84
2022/08/30 06:25:08;;;;;;;;;9.80;9.00;;;;;17.93;55.54;100331.38;5018095;28;8903;-83
2022/08/30 06:27:36;;;;;;;;;9.80;7.00;;;;;17.88;55.75;100344.50;5030150;28;8834;-83
2022/08/30 06:30:06;;;;;;;;;9.40;7.40;;;;;17.82;56.30;100344.28;5014138;28;8991;-83
2022/08/30 06:32:35;;;;;;;;;9.00;7.00;;;;;17.84;56.31;100345.81;5014076;28;8854;-84
2022/08/30 06:35:02;;;;;;;;;9.40;9.00;;;;;17.93;56.29;100347.56;5013291;28;8859;-83
2022/08/30 06:37:31;;;;;;;;;12.00;10.80;;;;;18.00;56.32;100347.78;5011116;28;8845;-83
2022/08/30 06:40:02;;;;;;;;;11.60;10.80;;;;;18.08;55.53;100350.53;5012078;28;8802;-83
2022/08/30 06:42:30;;;;;;;;;10.00;8.80;;;;;18.18;56.03;100335.94;5012046;28;8857;-83
2022/08/30 06:44:58;;;;;;;;;9.00;9.00;;;;;18.32;55.38;100338.06;5011710;28;8976;-84
2022/08/30 06:47:26;;;;;;;;;6.00;5.20;;;;;18.45;55.30;100343.00;5012213;28;8996;-83
2022/08/30 06:49:54;;;;;;;;;9.00;7.40;;;;;18.58;54.99;100341.53;5012280;28;8845;-83
2022/08/30 06:52:22;;;;;;;;;7.60;6.00;;;;;18.71;55.30;100343.75;5012535;28;8874;-83
2022/08/30 06:54:50;;;;;;;;;9.60;9.00;;;;;18.83;54.76;100342.47;5012676;28;8860;-84
2022/08/30 06:57:18;;;;;;;;;11.00;8.40;;;;;18.90;54.57;100338.91;5012619;28;8845;-83
2022/08/30 06:59:45;;;;;;;;;8.00;8.00;;;;;18.99;54.25;100345.19;5011547;28;8973;-83
2022/08/30 07:02:13;;;;;;;;;7.00;6.80;;;;;19.08;54.21;100341.50;5011329;28;8835;-83
2022/08/30 07:04:41;;;;;;;;;10.60;10.20;;;;;19.18;54.52;100331.41;5012114;28;8980;-84
2022/08/30 07:07:09;;;;;;;;;11.20;9.20;;;;;19.27;53.91;100339.34;5018357;28;8936;-84
2022/08/30 07:09:41;;;;;;;;;8.00;7.60;;;;;19.37;53.86;100334.66;5014050;28;8942;-84
2022/08/30 07:12:11;;;;;;;;;12.60;10.20;;;;;19.51;53.71;100335.84;5011276;28;8842;-84
2022/08/30 07:14:38;;;;;;;;;6.60;6.60;;;;;19.62;53.63;100341.75;5010688;28;8972;-84
2022/08/30 07:18:49;;;;;;;;;10.40;10.00;;;;;19.70;53.70;100340.88;5009995;28;8955;-83
2022/08/30 07:19:59;;;;;;;;;8.20;6.00;;;;;19.76;53.69;100338.34;5007817;28;9148;-84
2022/08/30 07:22:28;;;;;;;;;6.80;5.40;;;;;19.84;53.07;100340.19;5008573;28;8961;-83
2022/08/30 07:24:56;;;;;;;;;7.80;7.60;;;;;19.95;53.23;100342.56;5009085;28;8862;-83
2022/08/30 07:27:23;;;;;;;;;10.00;8.00;;;;;20.04;53.00;100336.94;5012083;28;8854;-84
2022/08/30 07:29:51;;;;;;;;;10.00;8.00;;;;;20.12;53.59;100338.81;5013200;28;8826;-84
2022/08/30 07:32:19;;;;;;;;;8.80;8.80;;;;;20.15;53.14;100338.47;5010026;28;8872;-84
2022/08/30 07:34:47;;;;;;;;;7.20;6.20;;;;;20.22;53.10;100334.06;5009739;28;9551;-84
2022/08/30 07:37:18;;;;;;;;;9.80;9.60;;;;;20.30;53.11;100326.75;5007779;28;8850;-84
2022/08/30 07:39:45;;;;;;;;;9.20;9.20;;;;;20.40;53.31;100331.97;5008364;28;8834;-84
2022/08/30 07:42:15;;;;;;;;;10.60;9.60;;;;;20.45;52.99;100333.13;5008955;28;8858;-84
2022/08/30 07:44:43;;;;;;;;;10.80;10.80;;;;;20.51;53.28;100339.69;5010563;28;9831;-84
2022/08/30 07:47:11;;;;;;;;;11.00;11.00;;;;;20.57;52.71;100337.16;5015460;28;8842;-84
2022/08/30 07:49:39;;;;;;;;;9.80;8.00;;;;;20.64;53.37;100326.44;5025089;28;8981;-84
2022/08/30 07:52:07;;;;;;;;;11.20;10.60;;;;;20.69;52.86;100334.91;5014934;28;8854;-84
2022/08/30 07:54:36;;;;;;;;;10.60;10.60;;;;;20.79;52.81;100331.78;5012699;28;8992;-84
2022/08/30 07:57:04;;;;;;;;;12.60;11.00;;;;;20.90;52.89;100333.28;5010950;28;8835;-84
2022/08/30 07:59:31;;;;;;;;;11.40;11.00;;;;;20.96;52.71;100333.41;5010928;28;8842;-84
2022/08/30 08:02:03;;;;;;;;;14.00;11.80;;;;;21.03;52.44;100337.09;5011075;28;8849;-84
2022/08/30 08:04:32;;;;;;;;;12.00;10.20;;;;;21.09;52.78;100335.50;5009996;28;8915;-84
2022/08/30 08:07:00;;;;;;;;;11.40;9.00;;;;;21.14;52.86;100342.09;5010861;28;9638;-83
2022/08/30 08:09:28;;;;;;;;;13.60;12.80;;;;;21.22;52.41;100344.75;5010801;28;8902;-84
2022/08/30 08:11:55;;;;;;;;;11.20;9.60;;;;;21.32;52.72;100341.78;5009960;28;8884;-84
2022/08/30 08:14:23;;;;;;;;;11.80;11.00;;;;;21.43;52.52;100341.38;5010576;28;8987;-84
2022/08/30 08:16:51;;;;;;;;;14.20;11.00;;;;;21.52;51.97;100345.69;5010432;28;8969;-84
2022/08/30 08:19:19;;;;;;;;;9.80;8.00;;;;;21.59;51.87;100341.25;5009766;28;8992;-84
2022/08/30 08:21:46;;;;;;;;;4.40;4.00;;;;;21.64;52.05;100346.97;5010219;28;8981;-84
2022/08/30 08:24:26;;;;;;;;;11.00;11.00;;;;;21.72;51.76;100345.03;5010681;28;8834;-84
2022/08/30 08:26:54;;;;;;;;;11.00;10.60;;;;;21.80;51.80;100346.84;5010281;28;8992;-84
2022/08/30 08:29:22;;;;;;;;;10.40;9.40;;;;;21.87;52.13;100347.81;5009530;28;9553;-84
2022/08/30 08:31:50;;;;;;;;;9.60;8.00;;;;;21.97;51.55;100337.53;5009973;28;8842;-84
2022/08/30 08:34:22;;;;;;;;;6.80;6.40;;;;;22.03;51.47;100342.22;5010164;28;8846;-84
2022/08/30 08:36:50;;;;;;;;;3.20;3.20;;;;;22.13;51.84;100353.63;5008976;28;8846;-84
2022/08/30 08:39:18;;;;;;;;;8.00;6.60;;;;;22.26;51.63;100342.97;5008942;28;8989;-84
2022/08/30 08:41:46;;;;;;;;;6.80;6.20;;;;;22.36;50.80;100348.97;5008822;28;8934;-84
2022/08/30 08:44:14;;;;;;;;;8.60;7.40;;;;;22.48;50.91;100351.03;5008667;28;8877;-84
2022/08/30 08:46:41;;;;;;;;;10.60;8.80;;;;;22.61;50.53;100345.78;5009730;28;8947;-84
2022/08/30 08:49:11;;;;;;;;;6.00;6.00;;;;;22.73;50.83;100344.28;5009697;28;8923;-84
2022/08/30 08:54:25;;;;;;;;;9.80;9.20;;;;;22.92;50.38;100334.72;5011379;28;8838;-84
2022/08/30 08:56:53;;;;;;;;;8.00;6.80;;;;;23.00;50.05;100337.31;5010548;28;8830;-84
2022/08/30 08:59:21;;;;;;;;;5.00;4.20;;;;;23.10;50.05;100335.09;5009866;28;8919;-84
2022/08/30 09:01:49;;;;;;;;;5.60;5.40;;;;;23.17;49.88;100338.78;5010953;28;8846;-84
2022/08/30 09:04:18;;;;;;;;;6.40;6.00;;;;;23.24;50.04;100345.13;5008896;28;8862;-84
2022/08/30 09:06:47;;;;;;;;;7.20;6.40;;;;;23.31;50.22;100340.59;5010143;28;9683;-84
2022/08/30 09:09:16;;;;;;;;;6.60;6.60;;;;;23.40;49.46;100340.28;5008372;28;8853;-84
2022/08/30 09:11:44;;;;;;;;;9.20;7.80;;;;;23.51;49.75;100347.91;5008637;28;8859;-85
2022/08/30 09:14:13;;;;;;;;;8.80;7.60;;;;;23.62;49.36;100347.41;5007239;28;8838;-84
2022/08/30 09:16:41;;;;;;;;;8.60;6.00;;;;;23.72;49.18;100347.91;5008882;28;8854;-84
2022/08/30 09:19:09;;;;;;;;;10.00;7.20;;;;;23.84;49.12;100342.75;5009150;28;8850;-84
2022/08/30 09:21:38;;;;;;;;;6.00;6.00;;;;;23.99;49.09;100341.69;5010692;28;8854;-84
2022/08/30 09:24:09;;;;;;;;;6.80;6.80;;;;;24.10;48.91;100340.25;5009813;28;8906;-84
2022/08/30 09:26:37;;;;;;;;;5.00;5.00;;;;;24.17;48.84;100332.97;5008695;28;9511;-84
2022/08/30 09:29:05;;;;;;;;;7.20;5.40;;;;;24.28;49.13;100330.53;5010105;28;8869;-84
2022/08/30 09:31:33;;;;;;;;;7.80;7.00;;;;;24.36;48.88;100326.84;5009336;28;8947;-84
2022/08/30 09:34:02;;;;;;;;;5.20;5.20;;;;;24.55;48.62;100336.97;5008247;28;8993;-84
2022/08/30 09:36:30;;;;;;;;;6.40;5.40;;;;;24.77;48.06;100331.28;5009043;28;9258;-84
2022/08/30 09:38:58;;;;;;;;;9.00;7.00;;;;;24.95;47.79;100339.72;5007176;28;8877;-85
2022/08/30 09:41:26;;;;;;;;;4.00;3.00;;;;;25.01;47.60;100329.88;5009314;28;8842;-84
2022/08/30 09:43:54;;;;;;;;;5.00;3.00;;;;;25.14;47.23;100333.50;5010304;28;9551;-85
2022/08/30 09:46:22;;;;;;;;;6.60;6.20;;;;;25.24;47.26;100335.88;5009802;28;8886;-85
2022/08/30 09:48:50;;;;;;;;;7.00;7.00;;;;;25.26;47.30;100331.03;5008840;28;8838;-85
2022/08/30 09:51:20;;;;;;;;;5.00;5.00;;;;;25.29;47.30;100319.69;5008417;28;8853;-82
2022/08/30 09:53:53;;;;;;;;;6.20;5.20;;;;;25.38;47.25;100323.91;5009954;28;8841;-82
2022/08/30 09:56:40;;;;;;;;;4.60;4.60;;;;;25.65;47.33;100315.56;5011716;28;8897;-82
2022/08/30 09:59:08;;;;;;;;;5.00;5.00;;;;;26.05;46.76;100315.34;5013426;28;8869;-82
2022/08/30 10:01:36;;;;;;;;;5.40;5.40;;;;;26.55;45.24;100311.06;5013308;28;9405;-84
2022/08/30 10:04:04;;;;;;;;;6.00;5.40;;;;;27.26;44.82;100313.47;5013551;28;9512;-84
2022/08/30 10:06:32;;;;;;;;;6.40;6.00;;;;;27.93;43.65;100312.78;5011596;28;8846;-83
2022/08/30 10:09:00;;;;;;;;;4.20;3.40;;;;;28.53;42.64;100307.31;5012116;28;8860;-83
2022/08/30 10:11:29;;;;;;;;;4.40;4.00;;;;;29.01;41.93;100310.09;5015351;28;8872;-83
2022/08/30 10:13:57;;;;;;;;;7.40;6.80;;;;;29.38;41.82;100306.19;5019582;28;9519;-85
2022/08/30 10:16:24;;;;;;;;;3.20;3.20;;;;;29.64;40.98;100301.16;5016565;28;8838;-85
2022/08/30 10:18:53;;;;;;;;;5.20;4.80;;;;;29.87;41.02;100303.09;5017800;28;8861;-85
2022/08/30 10:21:24;;;;;;;;;6.20;6.20;;;;;30.14;40.58;100298.81;5017639;28;8868;-85
2022/08/30 10:23:51;;;;;;;;;6.80;5.20;;;;;30.55;40.11;100299.50;5010453;28;8846;-85
2022/08/30 10:26:19;;;;;;;;;5.00;5.00;;;;;30.93;39.25;100300.63;5009431;28;9043;-83
2022/08/30 10:28:47;;;;;;;;;5.60;3.60;;;;;31.35;38.73;100306.69;5010149;28;8904;-83
2022/08/30 10:31:18;;;;;;;;;4.40;4.40;;;;;31.65;38.24;100305.28;5009377;28;8869;-83
2022/08/30 10:33:50;;;;;;;;;5.00;5.00;;;;;31.91;38.54;100298.31;5011191;28;8964;-83
2022/08/30 10:36:19;;;;;;;;;4.60;4.60;;;;;32.18;38.07;100293.78;5011720;28;8912;-83
2022/08/30 10:38:47;;;;;;;;;4.80;4.80;;;;;32.37;37.95;100284.16;5010514;28;8853;-83
2022/08/30 10:41:15;;;;;;;;;7.20;6.60;;;;;32.63;36.86;100288.94;5011057;28;8915;-83
2022/08/30 10:43:44;;;;;;;;;4.80;4.80;;;;;32.78;36.77;100292.72;5012535;28;8846;-83
2022/08/30 10:46:17;;;;;;;;;5.00;4.00;;;;;32.84;37.15;100291.72;5012080;28;8888;-84
2022/08/30 10:48:45;;;;;;;;;4.40;4.40;;;;;32.73;37.27;100292.69;5008967;28;8838;-83
2022/08/30 10:51:14;;;;;;;;;4.80;4.80;;;;;32.75;37.26;100292.41;5007509;28;8846;-83
2022/08/30 10:53:43;;;;;;;;;5.80;5.80;;;;;32.66;37.19;100288.41;5008489;28;8907;-83
2022/08/30 10:56:11;;;;;;;;;5.80;5.00;;;;;32.76;37.25;100283.88;5008463;28;8883;-83
2022/08/30 10:58:39;;;;;;;;;7.60;6.80;;;;;32.80;37.20;100289.72;5009055;28;8834;-83
2022/08/30 11:01:07;;;;;;;;;5.00;5.00;;;;;32.84;36.88;100279.84;5010093;28;8854;-83
2022/08/30 11:03:39;;;;;;;;;6.80;6.00;;;;;33.13;36.64;100286.78;5009072;28;8974;-84
2022/08/30 11:06:06;;;;;;;;;6.40;6.00;;;;;33.35;36.15;100288.44;5009574;28;9037;-84
2022/08/30 11:08:34;;;;;;;;;5.20;5.20;;;;;33.46;35.76;100289.38;5010517;28;8865;-83
2022/08/30 11:11:02;;;;;;;;;5.60;5.00;;;;;33.52;35.42;100291.09;5011760;28;9507;-83
2022/08/30 11:13:30;;;;;;;;;3.60;3.60;;;;;33.80;35.69;100288.03;5010504;28;8842;-83
2022/08/30 11:15:58;;;;;;;;;4.60;4.60;;;;;34.06;34.59;100287.16;5012016;28;8957;-83
2022/08/30 11:18:27;;;;;;;;;6.00;5.60;;;;;34.29;34.47;100284.00;5011758;28;8879;-83
2022/08/30 11:20:55;;;;;;;;;4.20;4.20;;;;;34.35;34.33;100286.53;5011730;28;8934;-83
2022/08/30 11:23:22;;;;;;;;;5.40;5.40;;;;;34.62;34.17;100278.09;5010329;28;9646;-84
2022/08/30 11:25:51;;;;;;;;;4.40;4.40;;;;;34.72;33.72;100283.69;5012676;28;8868;-83
2022/08/30 11:28:24;;;;;;;;;5.00;5.00;;;;;34.72;34.19;100275.38;5011599;28;9266;-84
2022/08/30 11:30:53;;;;;;;;;6.00;6.00;;;;;34.84;33.26;100276.00;5009514;28;8854;-83
2022/08/30 11:33:20;;;;;;;;;6.40;6.40;;;;;35.10;33.52;100286.88;5011401;28;8830;-83
2022/08/30 11:35:49;;;;;;;;;5.40;5.40;;;;;35.32;33.16;100272.84;5012028;28;8919;-83
2022/08/30 11:38:17;;;;;;;;;4.80;4.80;;;;;35.38;32.98;100277.25;5011156;28;9224;-84
2022/08/30 11:40:47;;;;;;;;;4.20;4.20;;;;;35.51;33.00;100285.03;5010840;28;8827;-83